aviador You're here:

KWAL Decoded Metar

WALLOPS ISLAND in VA, USA
Report Time2017-12-11 08:54:00
UTC Time2017-12-11 09:11:36
Flight Rules vfr VFR
Wind200° at 05 kt
W.Decomp.*RWY 22: 4.9 kt HW 0.8 kt LCW
RWY 17: 3.8 kt HW 3.3 kt RCW
RWY 28: 1.8 kt HW 4.7 kt LCW
W.Rank200° ranks 2
Current wind is below 200° avg. (9.3)
Visibility9999 m
Phenomena:N/A
Clouds:N/A
Expected CloudBase > 800 ft AGL from Temp-Dew spread
CeilingNone
Temp01°C (ISA -14)
Dew Point-1°C (87% RH)
AAT-2.9°C
QNH1018 hPa
Density Alt-1,742 ft
Elevation46 ft
Report Wrong Elevation
Raw Report
KWAL 110854Z AUTO 20005KT 10SM CLR 01/M01 A3005 RMK AO2 SLP174
T00111011 58008=

Extra information for KWAL:More info

Metar Taf Metar & Taf Last 4 Metars F.Rules Stats Wind Profile Meteogram Temp Stats Airport Information Weather charts Add Link Nearby VenuesMetar ALERT Operation Metar Decoded Social comments

AIRNAV info for KWAL